Time;durP1;ratioP1;P1;durP2;ratioP2;P2;SDS_P1;SDS_P2;PMS_P1;PMS_P2;Temp;Humidity;BMP_temperature;BMP_pressure;BME280_temperature;BME280_humidity;BME280_pressure;Samples;Min_cycle;Max_cycle;Signal;HPM_P1;HPM_P2
2023/11/09 00:01:07;;;;;;;1.95;1.70;;;;;;;;;;5048065;28;20627;-67
2023/11/09 00:03:32;;;;;;;2.43;1.70;;;;;;;;;;5047045;28;20228;-67
2023/11/09 00:05:57;;;;;;;2.17;1.98;;;;;;;;;;5046343;28;21792;-66
2023/11/09 00:08:23;;;;;;;2.97;1.57;;;;;;;;;;5048460;28;20184;-67
2023/11/09 00:10:49;;;;;;;2.20;2.00;;;;;;;;;;5052445;28;20731;-67
2023/11/09 00:13:14;;;;;;;1.70;1.50;;;;;;;;;;5051900;28;20256;-66
2023/11/09 00:15:39;;;;;;;3.05;1.83;;;;;;;;;;5031044;28;20197;-67
2023/11/09 00:18:05;;;;;;;3.40;2.20;;;;;;;;;;5050271;28;20238;-66
2023/11/09 00:20:30;;;;;;;2.83;2.30;;;;;;;;;;5049754;28;20571;-67
2023/11/09 00:22:55;;;;;;;3.22;2.15;;;;;;;;;;5045832;28;20173;-67
2023/11/09 00:25:21;;;;;;;4.67;2.57;;;;;;;;;;5050424;28;20271;-67
2023/11/09 00:27:46;;;;;;;2.30;2.07;;;;;;;;;;5048919;28;20204;-67
2023/11/09 00:30:11;;;;;;;3.75;2.42;;;;;;;;;;5047470;28;20291;-67
2023/11/09 00:32:37;;;;;;;4.03;3.60;;;;;;;;;;5040680;28;20285;-66
2023/11/09 00:35:03;;;;;;;2.70;2.50;;;;;;;;;;5045228;28;20540;-67
2023/11/09 00:37:28;;;;;;;2.90;2.60;;;;;;;;;;5035526;28;20197;-66
2023/11/09 00:39:54;;;;;;;2.97;2.67;;;;;;;;;;5042408;28;20200;-67
2023/11/09 00:42:21;;;;;;;4.68;2.88;;;;;;;;;;5039734;28;20212;-66
2023/11/09 00:44:47;;;;;;;3.45;3.13;;;;;;;;;;5047068;28;20173;-67
2023/11/09 00:47:12;;;;;;;4.53;2.80;;;;;;;;;;5054760;28;20181;-67
2023/11/09 00:49:37;;;;;;;3.75;3.38;;;;;;;;;;5051236;28;20770;-66
2023/11/09 00:52:02;;;;;;;6.70;3.03;;;;;;;;;;5050900;28;20801;-67
2023/11/09 00:54:28;;;;;;;6.28;3.30;;;;;;;;;;5050822;28;20178;-66
2023/11/09 00:56:55;;;;;;;4.10;3.00;;;;;;;;;;5041169;28;20687;-68
2023/11/09 00:59:21;;;;;;;5.28;3.20;;;;;;;;;;5048210;28;20625;-66
2023/11/09 01:01:46;;;;;;;4.67;2.87;;;;;;;;;;5028171;28;20209;-67
2023/11/09 01:04:11;;;;;;;3.70;3.10;;;;;;;;;;5035019;28;20174;-67
2023/11/09 01:06:36;;;;;;;6.10;2.60;;;;;;;;;;5039648;28;20181;-67
2023/11/09 01:09:02;;;;;;;4.43;2.97;;;;;;;;;;5053655;28;20565;-68
2023/11/09 01:11:27;;;;;;;3.17;2.87;;;;;;;;;;5051629;28;20206;-67
2023/11/09 01:13:52;;;;;;;5.23;2.97;;;;;;;;;;5045930;28;20272;-67
2023/11/09 01:16:20;;;;;;;3.97;2.93;;;;;;;;;;5052720;28;20559;-67
2023/11/09 01:18:46;;;;;;;4.70;2.58;;;;;;;;;;5053571;28;20181;-67
2023/11/09 01:21:12;;;;;;;4.03;2.78;;;;;;;;;;5048847;28;20208;-67
2023/11/09 01:23:37;;;;;;;3.88;2.97;;;;;;;;;;5051016;28;20181;-67
2023/11/09 01:26:02;;;;;;;4.13;2.70;;;;;;;;;;5053059;28;20177;-66
2023/11/09 01:28:27;;;;;;;3.17;2.85;;;;;;;;;;5042617;28;20657;-67
2023/11/09 01:30:53;;;;;;;2.40;1.95;;;;;;;;;;5054719;28;20218;-67
2023/11/09 01:33:18;;;;;;;3.70;2.40;;;;;;;;;;5055799;28;20173;-68
2023/11/09 01:35:43;;;;;;;3.80;2.55;;;;;;;;;;5057036;28;20298;-67
2023/11/09 01:38:08;;;;;;;3.95;2.55;;;;;;;;;;5051017;28;20192;-66
2023/11/09 01:40:34;;;;;;;2.50;2.28;;;;;;;;;;5051823;28;20687;-67
2023/11/09 01:42:59;;;;;;;4.93;2.60;;;;;;;;;;5052945;28;20735;-67
2023/11/09 01:45:24;;;;;;;4.13;2.75;;;;;;;;;;5052492;28;20188;-67
2023/11/09 01:47:52;;;;;;;3.83;3.10;;;;;;;;;;5034104;28;20660;-67
2023/11/09 01:50:17;;;;;;;5.50;2.80;;;;;;;;;;5035672;28;20197;-66
2023/11/09 01:52:42;;;;;;;3.47;2.50;;;;;;;;;;5053375;28;20534;-67
2023/11/09 01:55:08;;;;;;;2.53;2.33;;;;;;;;;;5052855;28;20215;-67
2023/11/09 01:57:34;;;;;;;3.22;2.72;;;;;;;;;;5050954;28;20176;-66
2023/11/09 02:00:00;;;;;;;2.70;2.47;;;;;;;;;;5056170;28;20665;-67
2023/11/09 02:02:25;;;;;;;5.45;3.08;;;;;;;;;;5050573;28;20278;-67
2023/11/09 02:04:51;;;;;;;2.35;2.15;;;;;;;;;;5052247;28;20612;-67
2023/11/09 02:07:16;;;;;;;3.85;2.30;;;;;;;;;;5053536;28;20958;-67
2023/11/09 02:09:42;;;;;;;3.38;2.50;;;;;;;;;;5050092;28;20235;-67
2023/11/09 02:12:08;;;;;;;2.97;2.38;;;;;;;;;;5055286;28;20683;-67
2023/11/09 02:14:33;;;;;;;2.53;2.33;;;;;;;;;;5053018;28;20204;-67
2023/11/09 02:16:59;;;;;;;2.55;2.33;;;;;;;;;;5053982;28;20217;-67
2023/11/09 02:19:27;;;;;;;3.08;2.60;;;;;;;;;;5052333;28;20177;-67
2023/11/09 02:21:53;;;;;;;3.63;2.50;;;;;;;;;;5046029;28;20252;-67
2023/11/09 02:24:19;;;;;;;3.25;2.75;;;;;;;;;;5055962;28;20661;-67
2023/11/09 02:26:45;;;;;;;4.57;3.38;;;;;;;;;;5052539;28;20192;-67
2023/11/09 02:29:10;;;;;;;4.47;4.00;;;;;;;;;;5050693;28;20280;-67
2023/11/09 02:31:36;;;;;;;4.07;3.55;;;;;;;;;;5047856;28;20684;-67
2023/11/09 02:34:02;;;;;;;4.53;3.50;;;;;;;;;;5053939;28;20652;-67
2023/11/09 02:36:28;;;;;;;5.28;3.75;;;;;;;;;;5048704;28;20238;-67
2023/11/09 02:38:54;;;;;;;7.30;4.70;;;;;;;;;;5056441;28;20192;-67
2023/11/09 02:41:19;;;;;;;5.13;4.50;;;;;;;;;;5048035;28;20326;-67
2023/11/09 02:43:44;;;;;;;4.18;3.78;;;;;;;;;;5052819;28;20189;-67
2023/11/09 02:46:12;;;;;;;5.72;4.32;;;;;;;;;;5051123;28;20184;-67
2023/11/09 02:48:38;;;;;;;4.68;4.18;;;;;;;;;;5048190;28;20178;-67
2023/11/09 02:51:06;;;;;;;5.28;4.78;;;;;;;;;;5032781;28;20707;-67
2023/11/09 02:53:32;;;;;;;5.40;4.88;;;;;;;;;;5047729;28;20269;-67
2023/11/09 02:55:57;;;;;;;6.88;4.82;;;;;;;;;;5049913;28;20312;-67
2023/11/09 02:58:22;;;;;;;4.97;4.40;;;;;;;;;;5048813;28;20185;-67
2023/11/09 03:00:49;;;;;;;6.03;4.13;;;;;;;;;;5048678;28;20240;-67
2023/11/09 03:03:14;;;;;;;7.18;4.57;;;;;;;;;;5049511;28;20182;-67
2023/11/09 03:05:39;;;;;;;5.43;4.30;;;;;;;;;;5049297;28;20228;-67
2023/11/09 03:08:04;;;;;;;4.60;4.10;;;;;;;;;;5047149;28;20188;-67
2023/11/09 03:10:29;;;;;;;7.47;3.67;;;;;;;;;;5051015;28;20205;-67
2023/11/09 03:12:55;;;;;;;3.53;3.05;;;;;;;;;;5048313;28;20177;-67
2023/11/09 03:15:22;;;;;;;4.35;2.83;;;;;;;;;;5050114;28;20691;-67
2023/11/09 03:17:47;;;;;;;3.97;2.47;;;;;;;;;;5049912;28;20186;-67
2023/11/09 03:20:12;;;;;;;4.18;2.10;;;;;;;;;;5049948;28;20192;-67
2023/11/09 03:22:39;;;;;;;3.33;2.28;;;;;;;;;;5051305;28;20235;-67
2023/11/09 03:25:05;;;;;;;2.55;2.00;;;;;;;;;;5048220;28;20193;-67
2023/11/09 03:27:30;;;;;;;2.17;1.98;;;;;;;;;;5048234;28;20181;-67
2023/11/09 03:29:55;;;;;;;2.28;2.08;;;;;;;;;;5048138;28;20205;-67
2023/11/09 03:32:22;;;;;;;2.03;1.83;;;;;;;;;;5049996;28;20562;-67
2023/11/09 03:34:48;;;;;;;2.08;1.88;;;;;;;;;;5050922;28;20173;-67
2023/11/09 03:37:13;;;;;;;2.53;2.20;;;;;;;;;;5046009;28;20173;-66
2023/11/09 03:39:38;;;;;;;2.83;2.45;;;;;;;;;;5052355;28;20647;-67
2023/11/09 03:42:03;;;;;;;5.85;2.75;;;;;;;;;;5050508;28;20198;-66
2023/11/09 03:44:33;;;;;;;3.50;2.85;;;;;;;;;;5051386;28;20165;-67
2023/11/09 03:46:58;;;;;;;3.03;2.63;;;;;;;;;;5048883;28;20783;-67
2023/11/09 03:49:24;;;;;;;3.70;2.47;;;;;;;;;;5047457;28;20261;-66
2023/11/09 03:51:49;;;;;;;2.47;2.08;;;;;;;;;;5048573;28;20205;-67
2023/11/09 03:54:14;;;;;;;2.20;1.98;;;;;;;;;;5050872;28;20190;-67
2023/11/09 03:56:39;;;;;;;2.20;1.75;;;;;;;;;;5050745;28;21939;-67
2023/11/09 03:59:05;;;;;;;1.98;1.50;;;;;;;;;;5049669;28;20226;-66
2023/11/09 04:01:30;;;;;;;2.60;1.60;;;;;;;;;;5045857;28;20214;-66
2023/11/09 04:03:55;;;;;;;2.33;1.13;;;;;;;;;;5049247;28;20174;-66
2023/11/09 04:06:21;;;;;;;7.13;1.67;;;;;;;;;;5045802;28;20488;-66
2023/11/09 04:08:46;;;;;;;2.05;1.85;;;;;;;;;;5045867;28;20181;-66
2023/11/09 04:11:12;;;;;;;1.80;1.40;;;;;;;;;;5049123;28;20291;-66
2023/11/09 04:13:37;;;;;;;2.50;1.60;;;;;;;;;;5050259;28;20174;-66
2023/11/09 04:16:03;;;;;;;2.22;1.48;;;;;;;;;;5030505;28;20622;-67
2023/11/09 04:18:28;;;;;;;2.05;1.42;;;;;;;;;;5048329;28;20588;-67
2023/11/09 04:20:53;;;;;;;2.05;1.55;;;;;;;;;;5050244;28;20198;-67
2023/11/09 04:23:19;;;;;;;3.80;1.97;;;;;;;;;;5051406;28;20532;-67
2023/11/09 04:25:44;;;;;;;3.55;2.45;;;;;;;;;;5050609;28;20284;-67
2023/11/09 04:28:10;;;;;;;4.10;2.47;;;;;;;;;;5047008;28;20671;-67
2023/11/09 04:30:36;;;;;;;5.95;3.33;;;;;;;;;;5050398;28;20236;-66
2023/11/09 04:33:05;;;;;;;4.37;3.30;;;;;;;;;;5046285;28;20202;-66
2023/11/09 04:35:31;;;;;;;5.47;3.27;;;;;;;;;;5049764;28;20197;-66
2023/11/09 04:37:56;;;;;;;5.90;4.00;;;;;;;;;;5031416;28;20653;-66
2023/11/09 04:40:25;;;;;;;7.50;4.60;;;;;;;;;;5049391;28;20691;-66
2023/11/09 04:42:50;;;;;;;9.40;5.90;;;;;;;;;;5043263;28;20269;-66
2023/11/09 04:45:16;;;;;;;8.17;5.13;;;;;;;;;;5045396;28;20268;-66
2023/11/09 04:47:43;;;;;;;11.03;5.90;;;;;;;;;;5047515;28;20193;-66
2023/11/09 04:50:14;;;;;;;12.03;6.37;;;;;;;;;;5050231;28;20227;-66
2023/11/09 04:52:44;;;;;;;9.93;6.13;;;;;;;;;;5047579;28;20178;-66
2023/11/09 04:55:14;;;;;;;9.00;6.00;;;;;;;;;;5031607;28;20178;-66
2023/11/09 05:08:37;;;;;;;12.50;6.23;;;;;;;;;;5048801;28;20252;-67
2023/11/09 05:11:03;;;;;;;12.10;6.80;;;;;;;;;;5048872;28;20625;-67
2023/11/09 05:13:28;;;;;;;12.87;6.47;;;;;;;;;;5050406;28;20166;-67
2023/11/09 05:15:54;;;;;;;9.70;6.00;;;;;;;;;;5048389;28;20170;-68
2023/11/09 05:18:20;;;;;;;13.77;6.30;;;;;;;;;;5048971;28;20204;-67
2023/11/09 05:20:45;;;;;;;10.57;5.67;;;;;;;;;;5031533;28;20236;-67
2023/11/09 05:23:10;;;;;;;9.70;6.30;;;;;;;;;;5045271;28;20265;-67
2023/11/09 05:25:37;;;;;;;13.27;6.33;;;;;;;;;;5047462;28;20178;-68
2023/11/09 05:28:03;;;;;;;14.37;7.30;;;;;;;;;;5049628;28;20217;-67
2023/11/09 05:30:28;;;;;;;14.43;7.53;;;;;;;;;;5047818;28;20704;-68
2023/11/09 05:32:53;;;;;;;12.97;7.03;;;;;;;;;;5051375;28;20223;-67
2023/11/09 05:35:19;;;;;;;9.93;5.30;;;;;;;;;;5049431;28;20170;-68
2023/11/09 05:37:44;;;;;;;12.67;6.27;;;;;;;;;;5046731;28;20186;-68
2023/11/09 05:40:10;;;;;;;14.13;6.70;;;;;;;;;;5049957;28;20197;-67
2023/11/09 05:42:35;;;;;;;11.67;6.03;;;;;;;;;;5045451;28;20213;-68
2023/11/09 05:45:04;;;;;;;16.97;6.37;;;;;;;;;;5049792;28;20668;-67
2023/11/09 05:47:29;;;;;;;10.70;6.33;;;;;;;;;;5040814;28;20174;-68
2023/11/09 05:49:57;;;;;;;12.97;5.67;;;;;;;;;;5052908;28;20186;-66
2023/11/09 05:52:22;;;;;;;12.83;5.77;;;;;;;;;;5052873;28;20228;-66
2023/11/09 05:54:48;;;;;;;11.80;5.10;;;;;;;;;;5053874;28;20660;-66
2023/11/09 05:57:13;;;;;;;9.47;5.00;;;;;;;;;;5054573;28;20173;-66
2023/11/09 05:59:39;;;;;;;9.07;5.27;;;;;;;;;;5051405;28;20176;-66
2023/11/09 06:02:04;;;;;;;11.87;6.33;;;;;;;;;;5052742;28;20239;-66
2023/11/09 06:04:29;;;;;;;17.10;6.63;;;;;;;;;;5051968;28;20181;-66
2023/11/09 06:06:54;;;;;;;10.67;5.17;;;;;;;;;;5053005;28;20213;-66
2023/11/09 06:09:19;;;;;;;11.70;5.73;;;;;;;;;;5050739;28;20192;-67
2023/11/09 06:11:46;;;;;;;9.23;4.90;;;;;;;;;;5048640;28;20262;-66
2023/11/09 06:14:13;;;;;;;15.00;5.57;;;;;;;;;;5051784;28;20208;-66
2023/11/09 06:16:39;;;;;;;9.70;4.83;;;;;;;;;;5051045;28;20645;-66
2023/11/09 06:19:05;;;;;;;10.30;4.67;;;;;;;;;;5052680;28;20260;-66
2023/11/09 06:21:30;;;;;;;11.23;5.30;;;;;;;;;;5052686;28;20313;-66
2023/11/09 06:23:56;;;;;;;10.47;5.87;;;;;;;;;;5052445;28;20185;-67
2023/11/09 06:26:24;;;;;;;8.83;4.13;;;;;;;;;;5049596;28;20189;-66
2023/11/09 06:28:52;;;;;;;11.10;5.07;;;;;;;;;;5046115;28;20209;-66
2023/11/09 06:31:18;;;;;;;9.43;4.90;;;;;;;;;;5048371;28;20209;-66
2023/11/09 06:33:43;;;;;;;10.83;5.50;;;;;;;;;;5049120;28;20180;-67
2023/11/09 06:36:08;;;;;;;11.10;5.63;;;;;;;;;;5046572;28;20269;-66
2023/11/09 06:38:33;;;;;;;8.20;5.07;;;;;;;;;;5050297;28;20281;-66
2023/11/09 06:40:58;;;;;;;12.47;5.67;;;;;;;;;;5048042;28;20247;-66
2023/11/09 06:43:25;;;;;;;9.83;5.57;;;;;;;;;;5052563;28;20259;-66
2023/11/09 06:45:50;;;;;;;12.07;6.53;;;;;;;;;;5051547;28;20193;-66
2023/11/09 06:48:15;;;;;;;12.10;5.57;;;;;;;;;;5049412;28;20562;-67
2023/11/09 06:50:40;;;;;;;12.60;5.93;;;;;;;;;;5050657;28;20209;-67
2023/11/09 06:53:05;;;;;;;11.87;5.27;;;;;;;;;;5049507;28;20555;-67
2023/11/09 06:55:31;;;;;;;12.37;4.80;;;;;;;;;;5051311;28;20613;-66
2023/11/09 06:57:56;;;;;;;10.03;5.80;;;;;;;;;;5049816;28;20171;-66
2023/11/09 07:00:23;;;;;;;8.23;4.40;;;;;;;;;;5045282;28;20197;-67
2023/11/09 07:02:49;;;;;;;12.30;6.07;;;;;;;;;;5033530;28;20276;-66
2023/11/09 07:05:14;;;;;;;9.10;4.47;;;;;;;;;;5049030;28;20261;-67
2023/11/09 07:07:40;;;;;;;10.83;4.90;;;;;;;;;;5038121;28;20215;-66
2023/11/09 07:10:07;;;;;;;10.57;4.47;;;;;;;;;;5045154;28;20240;-66
2023/11/09 07:12:35;;;;;;;10.17;4.50;;;;;;;;;;5050874;28;20212;-66
2023/11/09 07:15:00;;;;;;;10.10;5.63;;;;;;;;;;5048380;28;20253;-66
2023/11/09 07:17:26;;;;;;;10.17;4.83;;;;;;;;;;5051712;28;20716;-66
2023/11/09 07:19:51;;;;;;;10.73;5.63;;;;;;;;;;5050303;28;20185;-66
2023/11/09 07:22:17;;;;;;;13.07;5.80;;;;;;;;;;5050695;28;20185;-66
2023/11/09 07:24:49;;;;;;;14.27;5.07;;;;;;;;;;5048260;28;20182;-65
2023/11/09 07:27:15;;;;;;;14.43;5.53;;;;;;;;;;5049472;28;20712;-65
2023/11/09 07:29:40;;;;;;;13.20;5.37;;;;;;;;;;5046192;28;20269;-66
2023/11/09 07:32:06;;;;;;;9.00;5.33;;;;;;;;;;5044147;28;20634;-66
2023/11/09 07:34:31;;;;;;;12.57;6.47;;;;;;;;;;5038000;28;20208;-66
2023/11/09 07:36:58;;;;;;;14.80;6.57;;;;;;;;;;5056121;28;20228;-66
2023/11/09 07:39:27;;;;;;;18.47;7.63;;;;;;;;;;5051887;28;20169;-66
2023/11/09 07:41:53;;;;;;;11.03;6.07;;;;;;;;;;5032115;28;20220;-66
2023/11/09 07:44:18;;;;;;;13.10;6.00;;;;;;;;;;5054534;28;20236;-66
2023/11/09 07:46:43;;;;;;;13.20;7.73;;;;;;;;;;5054332;28;20182;-66
2023/11/09 07:49:10;;;;;;;16.80;7.40;;;;;;;;;;5054243;28;20209;-66
2023/11/09 07:51:37;;;;;;;16.93;7.23;;;;;;;;;;5051870;28;20292;-66
2023/11/09 07:54:06;;;;;;;14.87;6.37;;;;;;;;;;5052768;28;20595;-66
2023/11/09 07:56:31;;;;;;;18.80;8.40;;;;;;;;;;5043938;28;20540;-66
2023/11/09 07:58:57;;;;;;;22.30;9.73;;;;;;;;;;5050472;28;20174;-65
2023/11/09 08:01:22;;;;;;;21.53;9.20;;;;;;;;;;5051977;28;20225;-65
2023/11/09 08:03:49;;;;;;;17.80;8.80;;;;;;;;;;5053459;28;20215;-65
2023/11/09 08:06:14;;;;;;;16.47;7.40;;;;;;;;;;5053895;28;20204;-66
2023/11/09 08:08:41;;;;;;;19.33;9.20;;;;;;;;;;5051380;28;20209;-66
2023/11/09 08:11:06;;;;;;;21.40;8.70;;;;;;;;;;5050366;28;20200;-66
2023/11/09 08:13:31;;;;;;;15.00;8.43;;;;;;;;;;5045467;28;20181;-65
2023/11/09 08:15:58;;;;;;;15.68;7.97;;;;;;;;;;5049739;28;20205;-66
2023/11/09 08:18:24;;;;;;;16.35;7.20;;;;;;;;;;5056140;28;20174;-64
2023/11/09 08:20:50;;;;;;;16.63;6.30;;;;;;;;;;5048975;28;20193;-65
2023/11/09 08:23:15;;;;;;;17.17;6.07;;;;;;;;;;5039810;28;20220;-67
2023/11/09 08:25:40;;;;;;;10.95;5.20;;;;;;;;;;5042688;28;20750;-66
2023/11/09 08:28:06;;;;;;;11.75;5.43;;;;;;;;;;5041022;28;20180;-65
2023/11/09 08:30:33;;;;;;;13.00;5.75;;;;;;;;;;5045745;28;20211;-65
2023/11/09 08:32:58;;;;;;;17.90;4.95;;;;;;;;;;5048531;28;20180;-65
2023/11/09 08:35:26;;;;;;;15.63;4.93;;;;;;;;;;5046041;28;20181;-66
2023/11/09 08:37:57;;;;;;;12.18;5.13;;;;;;;;;;5042672;28;20213;-66
2023/11/09 08:40:29;;;;;;;8.73;4.97;;;;;;;;;;5046371;28;20210;-65
2023/11/09 08:42:54;;;;;;;13.88;5.30;;;;;;;;;;5044857;28;20190;-66
2023/11/09 08:45:27;;;;;;;12.85;5.57;;;;;;;;;;5041973;28;20649;-66
2023/11/09 08:47:52;;;;;;;11.43;5.35;;;;;;;;;;5044520;28;20178;-66
2023/11/09 08:50:18;;;;;;;15.93;5.28;;;;;;;;;;5050488;28;20202;-66
2023/11/09 08:52:43;;;;;;;14.15;5.97;;;;;;;;;;5046450;28;20188;-66
2023/11/09 08:55:09;;;;;;;13.55;5.82;;;;;;;;;;5044777;28;20256;-66
2023/11/09 08:57:41;;;;;;;12.75;6.03;;;;;;;;;;5044896;28;20636;-66
2023/11/09 09:00:11;;;;;;;20.73;6.68;;;;;;;;;;5047836;28;20219;-66
2023/11/09 09:02:39;;;;;;;15.95;6.50;;;;;;;;;;5043761;28;20212;-66
2023/11/09 09:05:05;;;;;;;15.55;6.75;;;;;;;;;;5049419;28;20174;-66
2023/11/09 09:07:30;;;;;;;15.15;6.45;;;;;;;;;;5047899;28;20176;-65
2023/11/09 09:09:55;;;;;;;14.05;6.55;;;;;;;;;;5043069;28;20170;-66
2023/11/09 09:12:20;;;;;;;15.13;6.80;;;;;;;;;;5049234;28;20193;-65
2023/11/09 09:14:47;;;;;;;20.08;5.75;;;;;;;;;;5041985;28;20182;-65
2023/11/09 09:17:13;;;;;;;18.88;6.75;;;;;;;;;;5050299;28;20253;-66
2023/11/09 09:19:38;;;;;;;11.95;6.07;;;;;;;;;;5047074;28;20265;-66
2023/11/09 09:22:04;;;;;;;13.65;6.30;;;;;;;;;;5031109;28;20198;-66
2023/11/09 09:24:29;;;;;;;13.73;5.32;;;;;;;;;;5052644;28;20170;-66
2023/11/09 09:26:54;;;;;;;11.55;5.40;;;;;;;;;;5053775;28;20181;-65
2023/11/09 09:29:20;;;;;;;15.48;5.38;;;;;;;;;;5053256;28;20188;-65
2023/11/09 09:31:45;;;;;;;17.98;6.63;;;;;;;;;;5051743;28;20218;-65
2023/11/09 09:34:19;;;;;;;10.82;4.38;;;;;;;;;;5060015;28;20173;-66
2023/11/09 09:36:44;;;;;;;12.70;4.60;;;;;;;;;;5055485;28;20180;-65
2023/11/09 09:39:10;;;;;;;16.92;4.97;;;;;;;;;;5056557;28;20166;-66
2023/11/09 09:41:42;;;;;;;16.25;4.40;;;;;;;;;;5054793;28;20200;-66
2023/11/09 09:44:09;;;;;;;11.05;4.75;;;;;;;;;;5054999;28;20169;-66
2023/11/09 09:46:35;;;;;;;11.93;4.75;;;;;;;;;;5053723;28;20185;-65
2023/11/09 09:49:03;;;;;;;16.83;5.05;;;;;;;;;;5053821;28;20165;-65
2023/11/09 09:51:30;;;;;;;20.38;5.07;;;;;;;;;;5052297;28;20582;-65
2023/11/09 09:53:56;;;;;;;10.70;4.78;;;;;;;;;;5053122;28;20173;-66
2023/11/09 09:56:22;;;;;;;14.32;4.70;;;;;;;;;;5033508;28;20174;-65
2023/11/09 09:58:48;;;;;;;14.15;5.40;;;;;;;;;;5056276;28;20181;-65
2023/11/09 10:01:13;;;;;;;14.82;4.07;;;;;;;;;;5050397;28;20212;-65
2023/11/09 10:03:39;;;;;;;14.75;4.28;;;;;;;;;;5052973;28;20170;-66
2023/11/09 10:06:09;;;;;;;9.43;4.25;;;;;;;;;;5049531;28;20201;-66
2023/11/09 10:08:36;;;;;;;21.88;4.55;;;;;;;;;;5057216;28;20181;-66
2023/11/09 10:11:01;;;;;;;11.73;4.15;;;;;;;;;;5051842;28;20193;-65
2023/11/09 10:13:28;;;;;;;9.68;3.55;;;;;;;;;;5048336;28;20189;-65
2023/11/09 10:15:54;;;;;;;8.77;3.55;;;;;;;;;;5051972;28;20170;-65
2023/11/09 10:18:24;;;;;;;10.35;3.33;;;;;;;;;;5052570;28;20213;-66
2023/11/09 10:20:55;;;;;;;12.07;3.03;;;;;;;;;;5051866;28;20204;-66
2023/11/09 10:23:20;;;;;;;10.65;3.78;;;;;;;;;;5055998;28;20235;-66
2023/11/09 10:25:45;;;;;;;12.55;3.75;;;;;;;;;;5056050;28;20855;-66
2023/11/09 10:28:11;;;;;;;13.63;3.17;;;;;;;;;;5052215;28;20219;-65
2023/11/09 10:30:40;;;;;;;9.52;3.83;;;;;;;;;;5049355;28;20232;-65
2023/11/09 10:33:09;;;;;;;8.00;3.88;;;;;;;;;;5051089;28;20672;-66
2023/11/09 10:35:44;;;;;;;10.82;3.03;;;;;;;;;;5043932;28;20292;-65
2023/11/09 10:38:12;;;;;;;6.03;3.03;;;;;;;;;;5034928;28;20203;-66
2023/11/09 10:40:41;;;;;;;15.18;4.43;;;;;;;;;;5033531;28;20212;-65
2023/11/09 10:43:07;;;;;;;9.98;3.67;;;;;;;;;;5047912;28;20197;-65
2023/11/09 10:45:38;;;;;;;15.82;4.10;;;;;;;;;;5049753;28;20217;-66
2023/11/09 10:48:10;;;;;;;10.85;4.40;;;;;;;;;;5050280;28;20209;-65
2023/11/09 10:50:46;;;;;;;10.30;3.38;;;;;;;;;;5051129;28;20213;-65
2023/11/09 10:53:15;;;;;;;14.85;4.20;;;;;;;;;;5048674;28;20173;-65
2023/11/09 10:55:47;;;;;;;13.98;4.00;;;;;;;;;;5054642;28;20650;-64
2023/11/09 10:58:13;;;;;;;13.85;3.83;;;;;;;;;;5045693;28;20677;-65
2023/11/09 11:00:42;;;;;;;15.13;3.35;;;;;;;;;;5046921;28;20194;-65
2023/11/09 11:03:15;;;;;;;9.43;2.80;;;;;;;;;;5048666;28;20178;-65
2023/11/09 11:05:44;;;;;;;11.48;3.17;;;;;;;;;;5052285;28;20174;-65
2023/11/09 11:08:13;;;;;;;5.65;2.45;;;;;;;;;;5051187;28;20186;-65
2023/11/09 11:10:42;;;;;;;9.20;3.13;;;;;;;;;;5051769;28;20290;-65
2023/11/09 11:13:09;;;;;;;14.73;3.50;;;;;;;;;;5046898;28;20261;-65
2023/11/09 11:15:54;;;;;;;8.85;3.22;;;;;;;;;;5050320;28;20181;-65
2023/11/09 11:18:26;;;;;;;9.50;3.45;;;;;;;;;;5017323;28;20205;-65
2023/11/09 11:20:51;;;;;;;11.32;2.83;;;;;;;;;;5050207;28;20198;-65
2023/11/09 11:23:38;;;;;;;12.98;3.03;;;;;;;;;;5051946;28;20176;-65
2023/11/09 11:26:10;;;;;;;14.75;3.08;;;;;;;;;;5048634;28;20182;-66
2023/11/09 11:28:38;;;;;;;12.88;2.97;;;;;;;;;;5036304;28;20180;-65
2023/11/09 11:31:04;;;;;;;11.73;2.85;;;;;;;;;;5048030;28;20205;-66
2023/11/09 11:33:30;;;;;;;8.30;2.38;;;;;;;;;;5048047;28;20230;-64
2023/11/09 11:35:56;;;;;;;8.88;2.45;;;;;;;;;;5051323;28;20178;-64
2023/11/09 11:38:24;;;;;;;8.07;2.20;;;;;;;;;;5052106;28;20174;-65
2023/11/09 11:40:50;;;;;;;12.10;2.75;;;;;;;;;;5047644;28;20205;-65
2023/11/09 11:43:16;;;;;;;9.65;2.75;;;;;;;;;;5051887;28;20660;-65
2023/11/09 11:45:41;;;;;;;7.88;2.25;;;;;;;;;;5047939;28;20205;-65
2023/11/09 11:48:19;;;;;;;7.25;2.22;;;;;;;;;;5048688;28;20650;-65
2023/11/09 11:50:44;;;;;;;8.60;2.28;;;;;;;;;;5049523;28;20714;-65
2023/11/09 11:53:23;;;;;;;8.95;2.20;;;;;;;;;;5050319;28;20178;-65
2023/11/09 11:55:57;;;;;;;10.38;2.20;;;;;;;;;;5049761;28;20189;-65
2023/11/09 11:58:27;;;;;;;10.75;2.45;;;;;;;;;;5052352;28;20222;-65
2023/11/09 12:00:52;;;;;;;5.82;1.90;;;;;;;;;;5036281;28;20284;-65
2023/11/09 12:03:18;;;;;;;4.55;2.47;;;;;;;;;;5043466;28;20668;-65
2023/11/09 12:05:43;;;;;;;10.70;2.00;;;;;;;;;;5052735;28;20264;-65
2023/11/09 12:08:12;;;;;;;5.93;3.03;;;;;;;;;;5049027;28;20241;-65
2023/11/09 12:10:40;;;;;;;9.15;2.60;;;;;;;;;;5047932;28;20205;-65
2023/11/09 12:13:06;;;;;;;8.30;2.75;;;;;;;;;;5052490;28;20722;-65
2023/11/09 12:15:32;;;;;;;9.63;2.30;;;;;;;;;;5043130;28;20231;-65
2023/11/09 12:17:57;;;;;;;6.25;2.67;;;;;;;;;;5049799;28;20177;-66
2023/11/09 12:20:23;;;;;;;9.40;2.80;;;;;;;;;;5050237;28;20854;-65
2023/11/09 12:22:49;;;;;;;9.85;2.60;;;;;;;;;;5048457;28;20177;-66
2023/11/09 12:25:16;;;;;;;9.45;2.33;;;;;;;;;;5055134;28;20197;-65
2023/11/09 12:27:41;;;;;;;9.80;2.33;;;;;;;;;;5050165;28;20623;-64
2023/11/09 12:30:07;;;;;;;6.50;2.17;;;;;;;;;;5054938;28;20185;-65
2023/11/09 12:32:32;;;;;;;9.43;3.53;;;;;;;;;;5048807;28;20204;-65
2023/11/09 12:34:59;;;;;;;5.95;2.65;;;;;;;;;;5045635;28;20185;-65
2023/11/09 12:37:30;;;;;;;16.10;2.65;;;;;;;;;;5050092;28;20204;-65
2023/11/09 12:39:56;;;;;;;6.82;2.30;;;;;;;;;;5044463;28;20702;-66
2023/11/09 12:42:24;;;;;;;11.13;2.15;;;;;;;;;;5048604;28;20201;-65
2023/11/09 12:44:51;;;;;;;9.13;2.83;;;;;;;;;;5050059;28;20181;-66
2023/11/09 12:47:20;;;;;;;6.07;1.67;;;;;;;;;;5048673;28;20627;-65
2023/11/09 12:49:48;;;;;;;6.70;2.65;;;;;;;;;;5048092;28;20634;-65
2023/11/09 12:52:17;;;;;;;9.13;1.95;;;;;;;;;;5023968;28;20233;-65
2023/11/09 12:54:44;;;;;;;8.38;2.40;;;;;;;;;;5046922;28;20279;-66
2023/11/09 12:57:11;;;;;;;10.70;2.88;;;;;;;;;;5050850;28;20767;-65
2023/11/09 12:59:41;;;;;;;7.60;1.98;;;;;;;;;;5052135;28;20311;-65
2023/11/09 13:02:14;;;;;;;6.72;2.58;;;;;;;;;;5047602;28;20209;-65
2023/11/09 13:04:41;;;;;;;10.63;2.83;;;;;;;;;;5052256;28;20257;-65
2023/11/09 13:07:12;;;;;;;11.90;2.55;;;;;;;;;;5051984;28;20181;-66
2023/11/09 13:09:38;;;;;;;12.35;2.10;;;;;;;;;;5053595;28;20231;-66
2023/11/09 13:14:54;;;;;;;9.27;3.33;;;;;;;;;;5053743;28;20189;-65
2023/11/09 13:17:19;;;;;;;16.50;3.08;;;;;;;;;;5051362;28;20256;-66
2023/11/09 13:19:50;;;;;;;11.68;2.83;;;;;;;;;;5053078;28;20205;-65
2023/11/09 13:22:17;;;;;;;10.13;2.67;;;;;;;;;;5049920;28;20204;-66
2023/11/09 13:24:43;;;;;;;6.68;2.30;;;;;;;;;;5054122;28;20200;-66
2023/11/09 13:27:16;;;;;;;6.78;1.95;;;;;;;;;;5051883;28;20182;-66
2023/11/09 13:29:43;;;;;;;7.68;1.98;;;;;;;;;;5054158;28;20177;-66
2023/11/09 13:32:08;;;;;;;8.95;2.50;;;;;;;;;;5049220;28;20792;-65
2023/11/09 13:34:42;;;;;;;6.75;2.15;;;;;;;;;;5034317;28;20603;-65
2023/11/09 13:37:08;;;;;;;10.75;2.30;;;;;;;;;;5052139;28;20601;-65
2023/11/09 13:39:50;;;;;;;6.45;1.85;;;;;;;;;;5053972;28;20174;-66
2023/11/09 13:42:21;;;;;;;6.90;2.45;;;;;;;;;;5051241;28;20616;-65
2023/11/09 13:44:48;;;;;;;7.13;2.20;;;;;;;;;;5052051;28;20182;-65
2023/11/09 13:47:13;;;;;;;9.00;2.80;;;;;;;;;;5041191;28;20190;-65
2023/11/09 13:49:39;;;;;;;12.60;2.58;;;;;;;;;;5054674;28;20189;-65
2023/11/09 13:52:13;;;;;;;9.65;2.10;;;;;;;;;;5032042;28;20224;-66
2023/11/09 13:59:51;;;;;;;8.60;2.35;;;;;;;;;;5046929;28;20205;-66
2023/11/09 14:02:16;;;;;;;11.32;2.08;;;;;;;;;;5045248;28;20586;-66
2023/11/09 14:04:46;;;;;;;6.65;2.50;;;;;;;;;;5050293;28;20261;-66
2023/11/09 14:07:13;;;;;;;6.97;2.97;;;;;;;;;;5052922;28;20177;-66
2023/11/09 14:09:42;;;;;;;10.75;2.80;;;;;;;;;;5052103;28;20257;-66
2023/11/09 14:12:12;;;;;;;8.38;2.55;;;;;;;;;;5048965;28;20700;-66
2023/11/09 14:14:41;;;;;;;11.18;3.85;;;;;;;;;;5032777;28;20184;-66
2023/11/09 14:17:16;;;;;;;10.40;2.40;;;;;;;;;;5051380;28;20188;-66
2023/11/09 14:19:41;;;;;;;5.60;1.90;;;;;;;;;;5053615;28;20652;-66
2023/11/09 14:22:06;;;;;;;15.30;2.40;;;;;;;;;;5048833;28;20205;-65
2023/11/09 14:24:36;;;;;;;5.18;2.42;;;;;;;;;;5051384;28;20598;-65
2023/11/09 14:27:03;;;;;;;11.40;2.83;;;;;;;;;;5055533;28;20193;-65
2023/11/09 14:29:28;;;;;;;7.85;2.13;;;;;;;;;;5050460;28;20177;-65
2023/11/09 14:31:54;;;;;;;6.45;2.90;;;;;;;;;;5051643;28;20684;-65
2023/11/09 14:34:21;;;;;;;10.52;2.45;;;;;;;;;;5052336;28;20185;-65
2023/11/09 14:36:48;;;;;;;6.47;2.15;;;;;;;;;;5047332;28;20568;-65
2023/11/09 14:39:32;;;;;;;13.43;3.17;;;;;;;;;;5051881;28;20181;-65
2023/11/09 14:41:58;;;;;;;12.13;2.90;;;;;;;;;;5054057;28;20208;-65
2023/11/09 14:44:24;;;;;;;7.88;2.30;;;;;;;;;;5052113;28;20213;-66
2023/11/09 14:46:53;;;;;;;7.43;2.92;;;;;;;;;;5040459;28;20177;-65
2023/11/09 14:49:19;;;;;;;11.23;2.72;;;;;;;;;;5050262;28;20205;-66
2023/11/09 14:51:47;;;;;;;12.82;2.72;;;;;;;;;;5048976;28;20256;-66
2023/11/09 14:54:13;;;;;;;10.23;2.50;;;;;;;;;;5051891;28;20605;-66